OMD1DF BIKF-EGAA
Flight info
| Callsign | OMD1DF |
|---|---|
| Flight time | N/A |
| Altitude | 37000 |
| Route | PIXUM2C PIXUM DCT PETUX DCT PODAR DCT ERAKA/N0481F370 DCT ETSOM DCT AMCON DCT BELZU |
| Aircraft | B748/H-SDE3FGHIM1M2RWXY/LB1 |
Departure
| Time | 2026-04-28 19:31 |
|---|---|
| Airport | Keflavik International Airport (BIKF) |
Arrival
| Time | N/A |
|---|---|
| Airport | Belfast International Airport (EGAA) |
| Time | Latitude | Longitude | Altitude | Speed | Heading |
|---|---|---|---|---|---|
| 2026-04-28 18:56 | 63.99328 | -22.62912 | 170 ft | 0 kts | 267° |
| 2026-04-28 19:18 | 63.99328 | -22.62906 | 174 ft | 2 kts | 267° |
| 2026-04-28 19:19 | 63.99329 | -22.62847 | 174 ft | 4 kts | 267° |
| 2026-04-28 19:19 | 63.99331 | -22.62793 | 174 ft | 4 kts | 242° |
| 2026-04-28 19:19 | 63.99349 | -22.62757 | 174 ft | 4 kts | 197° |
| 2026-04-28 19:19 | 63.99362 | -22.62749 | 174 ft | 4 kts | 187° |
| 2026-04-28 19:26 | 63.99360 | -22.62750 | 174 ft | 2 kts | 187° |
| 2026-04-28 19:26 | 63.99306 | -22.62750 | 173 ft | 11 kts | 180° |
| 2026-04-28 19:26 | 63.99244 | -22.62708 | 173 ft | 8 kts | 152° |
| 2026-04-28 19:27 | 63.99195 | -22.62665 | 173 ft | 4 kts | 160° |
| 2026-04-28 19:27 | 63.99186 | -22.62629 | 173 ft | 4 kts | 105° |
| 2026-04-28 19:27 | 63.99176 | -22.62478 | 173 ft | 14 kts | 100° |
| 2026-04-28 19:27 | 63.99177 | -22.62222 | 173 ft | 20 kts | 91° |
| 2026-04-28 19:28 | 63.99170 | -22.61877 | 174 ft | 22 kts | 94° |
| 2026-04-28 19:28 | 63.99168 | -22.61552 | 175 ft | 20 kts | 93° |
| 2026-04-28 19:28 | 63.99170 | -22.61263 | 176 ft | 17 kts | 90° |
| 2026-04-28 19:28 | 63.99172 | -22.61008 | 177 ft | 13 kts | 89° |
| 2026-04-28 19:29 | 63.99173 | -22.60850 | 178 ft | 0 kts | 89° |
| 2026-04-28 19:30 | 63.99173 | -22.60849 | 178 ft | 0 kts | 89° |
| 2026-04-28 19:30 | 63.99172 | -22.60806 | 178 ft | 9 kts | 93° |
| 2026-04-28 19:30 | 63.99167 | -22.60595 | 179 ft | 11 kts | 105° |
| 2026-04-28 19:30 | 63.99125 | -22.60535 | 179 ft | 5 kts | 181° |
| 2026-04-28 19:31 | 63.99037 | -22.60546 | 176 ft | 40 kts | 183° |
| 2026-04-28 19:31 | 63.98441 | -22.60540 | 170 ft | 128 kts | 181° |
| 2026-04-28 19:31 | 63.97341 | -22.60548 | 371 ft | 169 kts | 182° |
| 2026-04-28 19:31 | 63.96155 | -22.60426 | 1050 ft | 170 kts | 181° |
| 2026-04-28 19:32 | 63.95037 | -22.60252 | 2045 ft | 164 kts | 181° |
| 2026-04-28 19:32 | 63.93866 | -22.60069 | 2579 ft | 170 kts | 181° |
| 2026-04-28 19:32 | 63.92682 | -22.59414 | 2814 ft | 191 kts | 160° |
| 2026-04-28 19:32 | 63.91683 | -22.57051 | 3051 ft | 227 kts | 121° |
| 2026-04-28 19:33 | 63.91207 | -22.53784 | 4244 ft | 207 kts | 118° |
| 2026-04-28 19:33 | 63.90723 | -22.50832 | 5283 ft | 193 kts | 127° |
| 2026-04-28 19:33 | 63.90007 | -22.48333 | 5957 ft | 191 kts | 144° |
| 2026-04-28 19:33 | 63.89080 | -22.46066 | 6515 ft | 199 kts | 146° |
| 2026-04-28 19:34 | 63.88122 | -22.43750 | 7117 ft | 210 kts | 144° |
| 2026-04-28 19:34 | 63.87102 | -22.41209 | 7634 ft | 227 kts | 143° |
| 2026-04-28 19:34 | 63.86017 | -22.38469 | 8123 ft | 243 kts | 143° |
| 2026-04-28 19:34 | 63.84843 | -22.35505 | 8651 ft | 258 kts | 142° |
| 2026-04-28 19:35 | 63.83621 | -22.32421 | 9265 ft | 267 kts | 142° |
| 2026-04-28 19:35 | 63.82364 | -22.29264 | 9928 ft | 275 kts | 143° |
| 2026-04-28 19:35 | 63.81048 | -22.25983 | 10390 ft | 288 kts | 142° |
| 2026-04-28 19:35 | 63.79684 | -22.22585 | 10841 ft | 302 kts | 142° |
| 2026-04-28 19:36 | 63.78259 | -22.19015 | 11467 ft | 309 kts | 142° |
| 2026-04-28 19:36 | 63.76804 | -22.15374 | 12199 ft | 314 kts | 143° |
| 2026-04-28 19:36 | 63.75331 | -22.11711 | 12968 ft | 317 kts | 143° |
| 2026-04-28 19:36 | 63.73837 | -22.08007 | 13722 ft | 321 kts | 143° |
| 2026-04-28 19:37 | 63.72342 | -22.04221 | 14390 ft | 328 kts | 139° |
| 2026-04-28 19:37 | 63.71459 | -22.01386 | 14832 ft | 335 kts | 136° |
| 2026-04-28 19:37 | 63.69689 | -21.95548 | 15688 ft | 340 kts | 136° |
| 2026-04-28 19:37 | 63.68357 | -21.91199 | 16331 ft | 343 kts | 137° |
| 2026-04-28 19:38 | 63.66997 | -21.86764 | 16976 ft | 346 kts | 137° |
| 2026-04-28 19:38 | 63.65621 | -21.82279 | 17573 ft | 349 kts | 137° |
| 2026-04-28 19:38 | 63.64234 | -21.77762 | 18160 ft | 353 kts | 137° |
| 2026-04-28 19:38 | 63.62832 | -21.73209 | 18703 ft | 355 kts | 138° |
| 2026-04-28 19:39 | 63.61418 | -21.68627 | 19261 ft | 358 kts | 138° |
| 2026-04-28 19:39 | 63.59994 | -21.64020 | 19831 ft | 359 kts | 138° |
| 2026-04-28 19:39 | 63.58604 | -21.59564 | 20054 ft | 354 kts | 140° |
| 2026-04-28 19:39 | 63.57188 | -21.55085 | 20027 ft | 350 kts | 139° |
| 2026-04-28 19:40 | 63.55816 | -21.50669 | 20024 ft | 351 kts | 139° |
| 2026-04-28 19:40 | 63.54430 | -21.46143 | 20309 ft | 354 kts | 138° |
| 2026-04-28 19:40 | 63.53024 | -21.41577 | 20823 ft | 357 kts | 139° |
| 2026-04-28 19:40 | 63.51592 | -21.37014 | 21363 ft | 359 kts | 139° |
| 2026-04-28 19:41 | 63.50146 | -21.32432 | 21926 ft | 362 kts | 139° |
| 2026-04-28 19:41 | 63.48693 | -21.27808 | 22472 ft | 364 kts | 140° |
| 2026-04-28 19:41 | 63.47231 | -21.23160 | 23027 ft | 366 kts | 140° |
| 2026-04-28 19:41 | 63.45760 | -21.18501 | 23556 ft | 368 kts | 140° |
| 2026-04-28 19:42 | 63.44279 | -21.13827 | 24008 ft | 370 kts | 140° |
| 2026-04-28 19:42 | 63.42807 | -21.09190 | 24364 ft | 372 kts | 140° |
| 2026-04-28 19:42 | 63.41304 | -21.04460 | 24716 ft | 375 kts | 139° |
| 2026-04-28 19:42 | 63.40300 | -21.01306 | 24957 ft | 377 kts | 139° |
| 2026-04-28 19:43 | 63.38260 | -20.94909 | 25448 ft | 380 kts | 140° |
| 2026-04-28 19:43 | 63.36719 | -20.90090 | 25820 ft | 383 kts | 140° |
| 2026-04-28 19:43 | 63.35146 | -20.85305 | 26201 ft | 382 kts | 142° |
| 2026-04-28 19:43 | 63.33520 | -20.80587 | 26564 ft | 385 kts | 142° |
| 2026-04-28 19:44 | 63.31889 | -20.75833 | 26931 ft | 388 kts | 142° |
| 2026-04-28 19:44 | 63.30268 | -20.71113 | 27294 ft | 391 kts | 142° |
| 2026-04-28 19:44 | 63.28610 | -20.66307 | 27665 ft | 393 kts | 142° |
| 2026-04-28 19:44 | 63.26934 | -20.61466 | 28023 ft | 396 kts | 143° |
| 2026-04-28 19:45 | 63.25248 | -20.56600 | 28399 ft | 399 kts | 143° |
| 2026-04-28 19:45 | 63.23549 | -20.51707 | 28762 ft | 402 kts | 143° |
| 2026-04-28 19:45 | 63.21837 | -20.46785 | 29138 ft | 405 kts | 143° |
| 2026-04-28 19:45 | 63.20107 | -20.41826 | 29507 ft | 407 kts | 143° |
| 2026-04-28 19:46 | 63.18368 | -20.36850 | 29897 ft | 410 kts | 143° |
| 2026-04-28 19:46 | 63.16636 | -20.31905 | 30217 ft | 413 kts | 143° |
| 2026-04-28 19:46 | 63.14868 | -20.26867 | 30506 ft | 416 kts | 143° |
| 2026-04-28 19:46 | 63.13088 | -20.21807 | 30825 ft | 418 kts | 143° |
| 2026-04-28 19:47 | 63.11292 | -20.16716 | 31132 ft | 421 kts | 143° |
| 2026-04-28 19:47 | 63.09489 | -20.11615 | 31434 ft | 423 kts | 143° |
| 2026-04-28 19:47 | 63.07672 | -20.06484 | 31734 ft | 425 kts | 143° |
| 2026-04-28 19:47 | 63.05842 | -20.01331 | 32052 ft | 428 kts | 143° |
| 2026-04-28 19:48 | 63.04002 | -19.96159 | 32337 ft | 430 kts | 143° |
| 2026-04-28 19:48 | 63.02177 | -19.91042 | 32627 ft | 432 kts | 143° |
| 2026-04-28 19:48 | 63.00311 | -19.85822 | 32866 ft | 435 kts | 143° |
| 2026-04-28 19:48 | 62.98433 | -19.80583 | 33127 ft | 437 kts | 143° |
| 2026-04-28 19:49 | 62.96543 | -19.75319 | 33277 ft | 440 kts | 143° |
| 2026-04-28 19:49 | 62.94640 | -19.70032 | 33543 ft | 442 kts | 143° |
| 2026-04-28 19:49 | 62.92725 | -19.64723 | 33804 ft | 445 kts | 143° |
| 2026-04-28 19:49 | 62.90797 | -19.59393 | 34059 ft | 447 kts | 143° |
| 2026-04-28 19:50 | 62.86934 | -19.48748 | 34524 ft | 451 kts | 143° |
| 2026-04-28 19:50 | 62.84969 | -19.43355 | 34724 ft | 454 kts | 142° |
| 2026-04-28 19:50 | 62.82996 | -19.37949 | 34953 ft | 456 kts | 142° |
| 2026-04-28 19:51 | 62.81010 | -19.32523 | 35184 ft | 458 kts | 142° |
| 2026-04-28 19:51 | 62.79011 | -19.27074 | 35392 ft | 460 kts | 142° |
| 2026-04-28 19:51 | 62.77001 | -19.21609 | 35627 ft | 463 kts | 141° |
| 2026-04-28 19:51 | 62.74980 | -19.16126 | 35846 ft | 465 kts | 141° |
| 2026-04-28 19:52 | 62.73021 | -19.10433 | 35997 ft | 477 kts | 134° |
| 2026-04-28 19:52 | 62.71299 | -19.04176 | 36250 ft | 482 kts | 132° |
| 2026-04-28 19:52 | 62.69595 | -18.97885 | 36556 ft | 482 kts | 132° |
| 2026-04-28 19:52 | 62.67905 | -18.91696 | 36843 ft | 482 kts | 132° |
| 2026-04-28 19:53 | 62.66185 | -18.85428 | 37036 ft | 484 kts | 132° |
| 2026-04-28 19:53 | 62.62743 | -18.72884 | 37040 ft | 484 kts | 131° |
| 2026-04-28 19:54 | 62.59279 | -18.60357 | 37043 ft | 483 kts | 132° |
| 2026-04-28 19:54 | 62.55808 | -18.47863 | 37038 ft | 483 kts | 132° |
| 2026-04-28 19:55 | 62.52351 | -18.35491 | 37012 ft | 482 kts | 131° |
| 2026-04-28 19:55 | 62.48877 | -18.23122 | 37050 ft | 481 kts | 131° |
| 2026-04-28 19:56 | 62.45388 | -18.10768 | 37057 ft | 481 kts | 131° |
| 2026-04-28 19:56 | 62.41896 | -17.98471 | 37059 ft | 480 kts | 132° |
| 2026-04-28 19:57 | 62.38412 | -17.86274 | 37063 ft | 481 kts | 132° |
| 2026-04-28 19:57 | 62.34899 | -17.74029 | 37080 ft | 479 kts | 132° |
| 2026-04-28 19:58 | 62.31382 | -17.61854 | 37012 ft | 479 kts | 132° |
| 2026-04-28 19:58 | 62.27863 | -17.49720 | 37076 ft | 478 kts | 132° |
| 2026-04-28 19:59 | 62.24334 | -17.37626 | 37083 ft | 478 kts | 132° |
| 2026-04-28 19:59 | 62.20822 | -17.25648 | 37086 ft | 478 kts | 132° |
| 2026-04-28 20:00 | 62.17276 | -17.13622 | 37090 ft | 477 kts | 133° |
| 2026-04-28 20:00 | 62.13723 | -17.01635 | 37095 ft | 477 kts | 133° |
| 2026-04-28 20:01 | 62.10163 | -16.89686 | 37101 ft | 476 kts | 133° |
| 2026-04-28 20:01 | 62.06615 | -16.77845 | 37112 ft | 478 kts | 132° |
| 2026-04-28 20:02 | 62.03012 | -16.65873 | 37108 ft | 480 kts | 132° |
| 2026-04-28 20:02 | 61.99399 | -16.53937 | 37125 ft | 480 kts | 132° |
| 2026-04-28 20:03 | 61.95778 | -16.42033 | 37120 ft | 479 kts | 133° |
| 2026-04-28 20:03 | 61.92170 | -16.30235 | 37132 ft | 479 kts | 133° |
| 2026-04-28 20:04 | 61.88527 | -16.18386 | 37143 ft | 479 kts | 133° |
| 2026-04-28 20:04 | 61.84874 | -16.06566 | 37141 ft | 480 kts | 132° |
| 2026-04-28 20:05 | 61.81207 | -15.94755 | 37141 ft | 480 kts | 133° |
| 2026-04-28 20:05 | 61.77559 | -15.83073 | 37151 ft | 479 kts | 132° |
| 2026-04-28 20:06 | 61.73870 | -15.71316 | 37157 ft | 480 kts | 132° |
| 2026-04-28 20:06 | 61.70177 | -15.59605 | 37157 ft | 479 kts | 132° |
| 2026-04-28 20:07 | 61.66476 | -15.47935 | 37163 ft | 479 kts | 133° |
| 2026-04-28 20:07 | 61.62792 | -15.36365 | 37175 ft | 480 kts | 132° |
| 2026-04-28 20:08 | 61.59066 | -15.24735 | 37175 ft | 480 kts | 132° |
| 2026-04-28 20:08 | 61.55328 | -15.13116 | 37183 ft | 480 kts | 132° |
| 2026-04-28 20:09 | 61.51580 | -15.01533 | 37194 ft | 480 kts | 133° |
| 2026-04-28 20:09 | 61.49556 | -14.96079 | 37222 ft | 468 kts | 143° |
| 2026-04-28 20:09 | 61.47167 | -14.91756 | 37223 ft | 453 kts | 152° |
| 2026-04-28 20:10 | 61.42097 | -14.84075 | 37222 ft | 455 kts | 150° |
| 2026-04-28 20:10 | 61.37122 | -14.75807 | 37208 ft | 458 kts | 150° |